Time;durP1;ratioP1;P1;durP2;ratioP2;P2;SDS_P1;SDS_P2;PMS_P1;PMS_P2;Temp;Humidity;BMP_temperature;BMP_pressure;BME280_temperature;BME280_humidity;BME280_pressure;Samples;Min_cycle;Max_cycle;Signal;HPM_P1;HPM_P2
2022/05/24 00:02:17;;;;;;;7.20;5.30;;;;;;;7.58;75.86;96932.06;109970;1250;59688;-67
2022/05/24 00:04:48;;;;;;;7.40;4.60;;;;;;;7.53;77.66;96935.70;109977;1250;59792;-67
2022/05/24 00:07:18;;;;;;;9.70;6.20;;;;;;;7.48;78.37;96937.64;110110;1250;71344;-67
2022/05/24 00:09:49;;;;;;;;;;;;;;;7.42;78.76;96936.66;110182;1249;68052;-68
2022/05/24 00:12:19;;;;;;;7.60;5.10;;;;;;;7.38;79.05;96933.83;110155;1248;69386;-68
2022/05/24 00:15:33;;;;;;;7.10;5.70;;;;;;;7.33;79.12;96938.80;110165;1248;59694;-66
2022/05/24 00:17:48;;;;;;;7.40;4.90;;;;;;;7.26;79.59;96942.95;109968;1250;60196;-67
2022/05/24 00:20:19;;;;;;;7.20;5.70;;;;;;;7.22;79.12;96940.66;110014;1249;71511;-68
2022/05/24 00:22:49;;;;;;;8.60;6.00;;;;;;;7.16;79.62;96936.85;109938;1250;67765;-68
2022/05/24 00:25:19;;;;;;;8.40;6.30;;;;;;;7.10;80.30;96932.41;109985;1250;68329;-73
2022/05/24 00:27:49;;;;;;;10.20;7.20;;;;;;;7.05;80.79;96931.83;109983;1250;60047;-69
2022/05/24 00:30:19;;;;;;;7.80;6.70;;;;;;;7.02;80.20;96932.59;109740;1250;59757;-69
2022/05/24 00:32:49;;;;;;;7.80;4.70;;;;;;;6.98;77.85;96940.64;109872;1250;70756;-67
2022/05/24 00:35:21;;;;;;;8.80;5.90;;;;;;;6.96;78.43;96941.98;109714;1251;67837;-69
2022/05/24 00:37:52;;;;;;;6.30;4.50;;;;;;;6.95;79.78;96946.38;109945;1249;69236;-67
2022/05/24 00:40:33;;;;;;;8.10;5.50;;;;;;;6.93;80.46;96950.84;109940;1250;59706;-67
2022/05/24 00:43:09;;;;;;;9.30;5.80;;;;;;;6.89;81.06;96951.45;110013;1250;59770;-67
2022/05/24 00:45:46;;;;;;;5.70;4.90;;;;;;;6.85;81.42;96952.70;110157;1249;70807;-67
2022/05/24 00:48:26;;;;;;;8.70;4.70;;;;;;;6.84;80.19;96958.52;109828;1250;67955;-67
2022/05/24 00:50:58;;;;;;;7.10;5.80;;;;;;;6.81;80.86;96963.02;109952;1250;68663;-69
2022/05/24 00:53:50;;;;;;;8.00;5.70;;;;;;;6.78;79.36;96960.49;109939;1250;59695;-68
2022/05/24 00:56:55;;;;;;;5.90;4.40;;;;;;;6.74;80.10;96954.14;109967;1250;59724;-69
2022/05/24 00:59:53;;;;;;;6.50;5.30;;;;;;;6.68;81.52;96950.55;110040;1250;70928;-67
2022/05/24 01:02:22;;;;;;;8.00;6.00;;;;;;;6.64;81.24;96955.11;110017;1249;68598;-70
2022/05/24 01:04:55;;;;;;;10.90;7.10;;;;;;;6.61;79.85;96948.05;109755;1250;68618;-69
2022/05/24 01:07:25;;;;;;;8.00;5.20;;;;;;;6.58;78.71;96942.91;109920;1248;59751;-73
2022/05/24 01:10:03;;;;;;;7.20;4.80;;;;;;;6.56;78.52;96940.91;109895;1250;59663;-68
2022/05/24 01:13:00;;;;;;;6.90;5.00;;;;;;;6.58;80.15;96946.02;110002;1249;71546;-70
2022/05/24 01:15:31;;;;;;;11.50;6.80;;;;;;;6.57;80.33;96945.20;109896;1250;68505;-71
2022/05/24 01:18:02;;;;;;;7.10;5.60;;;;;;;6.51;77.75;96942.83;109945;1249;69387;-71
2022/05/24 01:20:33;;;;;;;6.70;4.50;;;;;;;6.45;79.11;96946.17;110000;1250;59740;-70
2022/05/24 01:23:22;;;;;;;8.50;5.80;;;;;;;6.35;80.61;96942.11;109954;1250;59608;-71
2022/05/24 01:26:06;;;;;;;7.60;5.40;;;;;;;6.24;81.25;96939.48;110131;1248;71540;-71
2022/05/24 01:29:01;;;;;;;9.00;5.50;;;;;;;6.17;82.40;96935.79;109988;1250;68071;-68
2022/05/24 01:36:09;;;;;;;7.70;5.60;;;;;;;6.13;81.33;96938.11;109978;1250;68603;-69
2022/05/24 01:37:13;;;;;;;10.30;7.90;;;;;;;6.07;80.11;96926.92;110009;1250;59735;-69
2022/05/24 01:39:51;;;;;;;7.10;5.70;;;;;;;6.08;81.06;96929.41;110028;1249;71052;-71
2022/05/24 01:42:27;;;;;;;6.50;3.60;;;;;;;6.09;80.12;96930.55;110018;1250;68402;-69
2022/05/24 01:45:05;;;;;;;6.20;5.00;;;;;;;6.09;78.54;96926.06;109973;1250;69675;-67
2022/05/24 01:47:38;;;;;;;7.50;5.90;;;;;;;6.09;78.11;96927.80;109831;1249;59725;-68
2022/05/24 01:50:14;;;;;;;6.90;5.00;;;;;;;6.08;78.20;96926.11;110028;1249;59767;-68
2022/05/24 01:52:49;;;;;;;8.70;6.80;;;;;;;6.08;79.59;96924.05;110061;1249;71521;-72
2022/05/24 01:55:28;;;;;;;6.40;4.90;;;;;;;6.08;82.51;96925.30;110024;1250;68608;-69
2022/05/24 01:58:02;;;;;;;6.70;5.10;;;;;;;6.06;79.62;96924.89;110046;1249;68578;-71
2022/05/24 02:00:32;;;;;;;8.30;6.60;;;;;;;6.06;82.32;96925.93;109981;1249;59770;-71
2022/05/24 02:03:04;;;;;;;5.70;4.10;;;;;;;6.04;81.34;96926.86;110169;1250;59722;-69
2022/05/24 02:05:41;;;;;;;8.70;6.20;;;;;;;6.03;80.35;96928.23;110186;1249;71506;-72
2022/05/24 02:08:11;;;;;;;9.50;6.00;;;;;;;5.99;83.81;96930.32;110006;1250;68445;-71
2022/05/24 02:10:50;;;;;;;6.80;5.60;;;;;;;5.97;83.38;96927.05;110126;1250;69485;-68
2022/05/24 02:13:38;;;;;;;10.90;7.70;;;;;;;5.94;80.05;96923.06;110168;1249;59725;-72
2022/05/24 02:16:13;;;;;;;8.80;6.60;;;;;;;5.93;83.59;96924.30;110034;1250;59668;-67
2022/05/24 02:18:46;;;;;;;6.60;5.40;;;;;;;5.92;83.13;96923.50;109919;1250;70764;-68
2022/05/24 02:21:19;;;;;;;6.70;5.80;;;;;;;5.92;83.66;96924.17;110143;1249;68408;-69
2022/05/24 02:23:52;;;;;;;5.80;5.20;;;;;;;5.92;85.14;96922.31;110272;1250;69403;-67
2022/05/24 02:26:26;;;;;;;8.60;5.50;;;;;;;5.89;83.91;96924.52;110159;1249;59717;-71
2022/05/24 02:28:56;;;;;;;6.20;5.30;;;;;;;5.85;84.28;96925.09;110165;1249;59729;-70
2022/05/24 02:31:26;;;;;;;9.60;6.20;;;;;;;5.85;85.25;96928.06;110164;1249;71522;-70
2022/05/24 02:33:56;;;;;;;9.70;5.80;;;;;;;5.85;85.28;96929.58;110124;1248;68542;-70
2022/05/24 02:36:27;;;;;;;7.10;5.30;;;;;;;5.85;84.91;96933.74;109940;1251;69097;-73
2022/05/24 02:39:03;;;;;;;7.70;5.80;;;;;;;5.85;84.85;96936.19;109941;1250;59739;-69
2022/05/24 02:41:36;;;;;;;7.90;6.10;;;;;;;5.85;85.60;96937.02;110033;1250;59597;-69
2022/05/24 02:44:12;;;;;;;10.00;6.30;;;;;;;5.85;85.59;96929.45;110056;1250;71468;-71
2022/05/24 02:46:45;;;;;;;7.10;5.70;;;;;;;5.85;85.26;96935.30;110084;1250;68495;-70
2022/05/24 02:49:15;;;;;;;8.90;5.10;;;;;;;5.88;85.94;96936.90;110017;1250;68668;-70
2022/05/24 02:51:47;;;;;;;6.60;4.40;;;;;;;5.91;84.95;96934.29;109999;1250;59726;-70
2022/05/24 02:54:16;;;;;;;6.10;4.60;;;;;;;5.93;83.08;96929.55;109973;1250;59765;-70
2022/05/24 02:56:46;;;;;;;9.30;6.30;;;;;;;5.95;83.57;96925.23;109925;1250;70819;-70
2022/05/24 02:59:16;;;;;;;7.10;4.50;;;;;;;5.97;83.10;96928.05;110028;1250;67788;-69
2022/05/24 03:01:45;;;;;;;6.50;4.70;;;;;;;5.98;83.36;96926.60;109915;1250;69464;-72
2022/05/24 03:04:16;;;;;;;5.80;5.20;;;;;;;5.99;83.16;96927.05;109962;1250;59754;-70
2022/05/24 03:09:36;;;;;;;7.30;5.10;;;;;;;5.99;83.24;96930.16;109953;1250;71593;-71
2022/05/24 03:14:57;;;;;;;5.80;4.70;;;;;;;6.01;84.18;96933.16;109935;1250;68475;-69
2022/05/24 03:17:27;;;;;;;8.10;5.10;;;;;;;6.04;84.46;96932.10;109753;1250;59674;-70
2022/05/24 03:20:06;;;;;;;6.10;3.90;;;;;;;6.08;83.72;96929.95;109989;1250;59690;-71
2022/05/24 03:22:36;;;;;;;5.60;4.40;;;;;;;6.13;84.02;96929.63;110036;1250;71542;-71
2022/05/24 03:25:09;;;;;;;7.70;5.80;;;;;;;6.18;83.64;96930.20;109902;1250;68529;-71
2022/05/24 03:27:42;;;;;;;9.10;5.30;;;;;;;6.23;84.13;96925.21;109893;1250;68825;-72
2022/05/24 03:30:16;;;;;;;6.40;5.20;;;;;;;6.30;84.86;96927.21;110085;1250;59753;-69
2022/05/24 03:32:49;;;;;;;5.60;4.90;;;;;;;6.37;84.95;96923.14;110107;1250;59645;-68
2022/05/24 03:35:24;;;;;;;6.90;5.00;;;;;;;6.44;83.69;96927.36;109770;1250;70727;-71
2022/05/24 03:37:54;;;;;;;8.30;6.20;;;;;;;6.51;83.91;96927.39;109887;1250;68736;-68
2022/05/24 03:40:26;;;;;;;6.10;5.10;;;;;;;6.59;83.46;96930.84;109850;1250;68489;-70
2022/05/24 03:42:59;;;;;;;7.00;5.40;;;;;;;6.62;82.60;96927.35;109920;1250;59772;-68
2022/05/24 03:45:30;;;;;;;6.90;5.40;;;;;;;6.69;82.87;96927.84;110163;1248;59693;-72
2022/05/24 03:48:02;;;;;;;7.00;5.90;;;;;;;6.78;83.13;96930.31;110028;1249;71436;-70
2022/05/24 03:50:33;;;;;;;9.20;6.90;;;;;;;6.89;83.32;96934.63;109968;1250;68936;-66
2022/05/24 03:53:02;;;;;;;9.60;6.40;;;;;;;7.00;82.98;96937.77;110150;1249;68469;-69
2022/05/24 03:55:31;;;;;;;8.90;6.70;;;;;;;7.06;82.13;96935.05;110103;1250;59735;-70
2022/05/24 03:58:03;;;;;;;8.70;6.20;;;;;;;7.15;82.06;96937.79;109980;1250;59701;-72
2022/05/24 04:00:35;;;;;;;9.30;6.00;;;;;;;7.24;81.96;96938.21;109876;1250;71625;-69
2022/05/24 04:03:06;;;;;;;7.30;4.80;;;;;;;7.36;81.68;96934.81;109954;1250;67548;-70
2022/05/24 04:05:45;;;;;;;7.50;5.70;;;;;;;7.52;80.87;96932.02;110100;1249;69542;-70
2022/05/24 04:08:18;;;;;;;;;;;;;;;7.67;80.55;96934.61;109821;1250;59693;-70
2022/05/24 04:10:48;;;;;;;10.10;6.80;;;;;;;7.81;80.40;96935.58;109954;1249;59641;-68
2022/05/24 04:13:17;;;;;;;8.20;6.30;;;;;;;7.97;81.26;96930.27;109940;1250;71874;-67
2022/05/24 04:15:46;;;;;;;11.60;6.80;;;;;;;8.14;80.76;96935.00;110185;1249;67785;-72
2022/05/24 04:18:15;;;;;;;9.40;5.10;;;;;;;8.30;79.94;96935.56;109945;1250;68118;-69
2022/05/24 04:20:44;;;;;;;7.40;5.50;;;;;;;8.48;79.44;96936.77;110096;1249;59757;-70
2022/05/24 04:23:14;;;;;;;8.00;4.60;;;;;;;8.67;78.54;96938.70;109961;1250;59754;-68
2022/05/24 04:25:43;;;;;;;7.30;4.60;;;;;;;8.84;77.96;96934.66;110116;1248;71562;-69
2022/05/24 04:28:13;;;;;;;9.50;6.60;;;;;;;9.02;77.64;96931.05;109998;1250;67175;-70
2022/05/24 04:30:42;;;;;;;9.90;5.40;;;;;;;9.19;77.25;96932.95;110044;1249;69325;-70
2022/05/24 04:33:12;;;;;;;9.70;5.50;;;;;;;9.35;76.93;96931.61;109928;1250;59706;-69
2022/05/24 04:35:46;;;;;;;9.40;5.90;;;;;;;9.50;76.19;96933.09;109954;1250;59735;-71
2022/05/24 04:38:15;;;;;;;10.40;6.40;;;;;;;9.64;76.39;96931.64;110044;1248;70787;-71
2022/05/24 04:43:33;;;;;;;10.50;6.60;;;;;;;9.94;75.44;96940.61;109969;1250;68707;-69
2022/05/24 04:46:03;;;;;;;10.00;6.90;;;;;;;10.02;75.03;96939.86;109894;1250;59740;-67
2022/05/24 04:48:34;;;;;;;11.40;6.90;;;;;;;10.09;74.91;96943.09;109997;1250;59689;-68
2022/05/24 04:51:03;;;;;;;10.60;6.40;;;;;;;10.19;74.87;96942.34;109866;1248;70814;-68
2022/05/24 04:53:33;;;;;;;8.50;6.20;;;;;;;10.32;74.48;96948.84;109883;1251;68604;-71
2022/05/24 04:56:05;;;;;;;9.60;6.30;;;;;;;10.42;73.81;96951.70;109718;1250;69273;-70
2022/05/24 04:58:34;;;;;;;7.40;5.50;;;;;;;10.55;73.60;96958.34;109934;1250;59688;-71
2022/05/24 05:01:03;;;;;;;7.00;4.70;;;;;;;10.69;73.51;96957.02;109808;1250;59701;-72
2022/05/24 05:03:32;;;;;;;8.70;4.70;;;;;;;10.91;72.77;96955.91;109805;1251;70610;-72
2022/05/24 05:06:05;;;;;;;8.10;5.50;;;;;;;11.20;71.34;96958.64;109951;1250;67962;-72
2022/05/24 05:08:35;;;;;;;6.20;4.30;;;;;;;11.61;70.51;96955.01;109882;1250;68470;-71
2022/05/24 05:11:03;;;;;;;7.20;4.20;;;;;;;12.11;69.05;96951.85;109798;1249;59696;-71
2022/05/24 05:13:32;;;;;;;5.90;3.60;;;;;;;12.61;67.17;96954.64;109886;1250;59706;-70
2022/05/24 05:16:01;;;;;;;5.10;3.80;;;;;;;13.08;65.50;96958.18;109725;1253;71819;-71
2022/05/24 05:18:30;;;;;;;5.00;4.20;;;;;;;13.58;64.26;96961.08;109669;1253;68651;-72
2022/05/24 05:21:00;;;;;;;6.30;3.90;;;;;;;13.97;63.13;96960.52;109867;1250;69716;-72
2022/05/24 05:23:29;;;;;;;6.80;4.70;;;;;;;14.44;61.92;96959.90;109934;1250;59768;-69
2022/05/24 05:25:58;;;;;;;7.00;4.40;;;;;;;14.73;60.68;96965.18;109880;1250;59643;-67
2022/05/24 05:28:27;;;;;;;7.10;3.90;;;;;;;14.72;58.98;96967.55;109757;1250;69842;-70
2022/05/24 05:33:44;;;;;;;5.10;3.50;;;;;;;15.23;58.23;96975.07;110083;1250;67464;-69
2022/05/24 05:36:14;;;;;;;5.90;3.50;;;;;;;15.33;58.94;96976.22;109918;1250;59869;-64
2022/05/24 05:38:46;;;;;;;5.40;4.10;;;;;;;15.29;57.46;96973.09;110144;1249;60143;-70
2022/05/24 05:41:21;;;;;;;3.90;3.10;;;;;;;15.30;56.88;96974.02;109933;1250;70661;-69
2022/05/24 05:43:50;;;;;;;3.90;3.50;;;;;;;15.52;57.59;96975.05;110101;1249;67611;-69
2022/05/24 05:46:19;;;;;;;5.40;3.60;;;;;;;15.65;56.50;96978.44;109901;1250;70095;-69
2022/05/24 05:48:50;;;;;;;4.00;3.20;;;;;;;15.67;56.12;96981.58;109980;1250;59783;-71
2022/05/24 05:51:19;;;;;;;5.10;3.50;;;;;;;15.83;55.06;96977.41;109941;1250;59687;-70
2022/05/24 05:53:51;;;;;;;5.50;3.40;;;;;;;15.96;55.20;96975.31;110000;1249;71358;-69
2022/05/24 05:56:23;;;;;;;4.70;3.40;;;;;;;16.11;54.46;96974.85;110133;1249;67885;-73
2022/05/24 05:58:52;;;;;;;5.10;3.00;;;;;;;16.25;53.66;96972.67;110131;1249;69341;-72
2022/05/24 06:01:29;;;;;;;5.60;3.90;;;;;;;16.29;53.60;96970.89;110137;1249;59689;-70
2022/05/24 06:04:02;;;;;;;5.90;3.80;;;;;;;16.26;54.01;96973.84;109977;1250;59730;-68
2022/05/24 06:06:36;;;;;;;3.30;2.60;;;;;;;16.26;54.07;96975.04;109748;1250;71592;-67
2022/05/24 06:09:05;;;;;;;5.40;3.20;;;;;;;16.44;54.19;96967.61;110144;1248;68540;-70
2022/05/24 06:11:34;;;;;;;4.60;3.60;;;;;;;16.68;53.76;96970.51;109998;1250;69480;-70
2022/05/24 06:14:04;;;;;;;;;;;;;;;17.00;53.46;96967.16;109857;1250;59699;-74
2022/05/24 06:16:34;;;;;;;6.50;3.60;;;;;;;17.21;51.59;96970.62;109805;1250;59766;-68
2022/05/24 06:19:05;;;;;;;5.40;3.20;;;;;;;17.55;52.12;96969.08;110097;1249;71481;-68
2022/05/24 06:21:34;;;;;;;3.60;3.30;;;;;;;17.86;50.11;96970.63;110082;1248;67803;-72
2022/05/24 06:24:05;;;;;;;4.00;3.10;;;;;;;18.10;49.72;96972.09;109913;1250;69538;-68
2022/05/24 06:26:34;;;;;;;5.20;2.60;;;;;;;18.40;47.75;96973.45;109714;1248;568607;-71
2022/05/24 06:29:05;;;;;;;3.80;3.40;;;;;;;18.82;47.27;96979.99;109955;1250;59685;-70
2022/05/24 06:31:35;;;;;;;3.80;3.20;;;;;;;19.12;46.79;96976.48;109815;1251;71283;-68
2022/05/24 06:34:04;;;;;;;4.50;2.80;;;;;;;19.54;45.26;96975.59;109900;1250;68723;-73
2022/05/24 06:36:33;;;;;;;4.10;2.90;;;;;;;19.89;45.54;96969.33;109656;1250;69512;-69
2022/05/24 06:39:03;;;;;;;4.20;3.50;;;;;;;20.30;43.87;96964.64;109756;1250;59696;-67
2022/05/24 06:41:32;;;;;;;6.00;3.30;;;;;;;20.42;42.57;96971.92;109834;1250;59695;-68
2022/05/24 06:44:01;;;;;;;3.40;2.80;;;;;;;20.74;42.80;96968.02;109957;1250;72115;-71
2022/05/24 06:46:31;;;;;;;3.80;2.70;;;;;;;21.13;41.74;96965.43;109857;1250;67713;-71
2022/05/24 06:49:00;;;;;;;3.50;3.20;;;;;;;21.51;41.33;96972.10;109920;1249;69415;-72
2022/05/24 06:51:29;;;;;;;3.20;2.80;;;;;;;21.78;39.57;96971.71;109783;1251;60097;-69
2022/05/24 06:53:58;;;;;;;4.40;3.40;;;;;;;21.99;39.75;96963.89;109765;1253;59756;-68
2022/05/24 06:56:28;;;;;;;4.70;3.00;;;;;;;22.15;39.70;96967.04;109923;1250;70810;-69
2022/05/24 07:04:32;;;;;;;3.50;2.90;;;;;;;21.47;38.63;96971.84;109799;1250;59750;-70
2022/05/24 07:07:01;;;;;;;3.10;2.60;;;;;;;21.20;39.76;96975.83;109823;1250;59688;-73
2022/05/24 07:09:31;;;;;;;4.30;2.70;;;;;;;20.85;39.95;96974.28;109961;1250;70745;-71
2022/05/24 07:12:01;;;;;;;3.00;2.70;;;;;;;20.59;40.48;96970.02;109927;1250;68656;-73
2022/05/24 07:14:33;;;;;;;3.00;2.70;;;;;;;20.54;41.04;96966.23;109817;1250;68162;-71
2022/05/24 07:17:03;;;;;;;3.30;3.00;;;;;;;20.46;41.36;96967.73;109789;1249;59758;-77
2022/05/24 07:19:32;;;;;;;3.90;3.10;;;;;;;20.21;41.33;96968.89;110000;1250;59746;-73
2022/05/24 07:22:02;;;;;;;10.00;3.60;;;;;;;19.82;42.42;96974.04;109920;1250;71570;-74
2022/05/24 07:24:31;;;;;;;4.30;2.80;;;;;;;19.52;42.89;96974.86;109976;1250;67903;-72
2022/05/24 07:27:01;;;;;;;4.40;3.10;;;;;;;19.43;43.29;96972.13;109963;1250;69049;-73
2022/05/24 07:29:34;;;;;;;5.50;3.30;;;;;;;19.45;43.02;96973.75;110017;1250;59692;-73
2022/05/24 07:32:04;;;;;;;3.90;2.70;;;;;;;19.49;42.97;96975.74;109850;1250;59692;-72
2022/05/24 07:34:35;;;;;;;4.10;3.30;;;;;;;19.43;42.80;96976.48;109915;1250;71542;-74
2022/05/24 07:37:07;;;;;;;4.00;3.50;;;;;;;19.29;43.05;96974.52;109942;1250;68642;-74
2022/05/24 07:39:36;;;;;;;6.20;3.10;;;;;;;19.27;43.33;96975.25;109994;1249;69719;-70
2022/05/24 07:47:43;;;;;;;4.10;2.80;;;;;;;19.99;42.36;96975.30;109904;1250;72270;-72
2022/05/24 07:50:12;;;;;;;5.40;3.50;;;;;;;19.88;42.46;96976.29;109798;1250;67831;-70
2022/05/24 07:52:41;;;;;;;5.80;3.80;;;;;;;20.42;42.56;96969.27;109962;1250;69443;-69
2022/05/24 07:55:11;;;;;;;4.00;3.20;;;;;;;21.02;41.54;96971.89;109974;1250;59714;-68
2022/05/24 07:57:40;;;;;;;4.10;3.40;;;;;;;21.55;40.24;96973.73;109764;1250;59740;-72
2022/05/24 08:00:09;;;;;;;3.20;2.50;;;;;;;22.23;39.45;96974.51;109990;1250;70874;-74
2022/05/24 08:02:41;;;;;;;5.00;3.10;;;;;;;22.82;37.99;96977.04;109952;1250;68541;-68
2022/05/24 08:05:10;;;;;;;6.30;3.10;;;;;;;23.14;36.63;96976.61;109809;1252;69414;-69
2022/05/24 08:07:39;;;;;;;;;;;;;;;23.63;37.23;96978.48;109908;1250;59760;-70
2022/05/24 08:10:08;;;;;;;4.20;2.90;;;;;;;24.23;36.18;96976.30;109769;1250;59691;-69
2022/05/24 08:12:44;;;;;;;4.90;2.70;;;;;;;24.79;36.10;96969.95;109893;1250;72084;-70
2022/05/24 08:15:14;;;;;;;4.30;2.90;;;;;;;25.26;34.29;96969.46;109765;1250;66842;-70
2022/05/24 08:17:42;;;;;;;;;;;;;;;25.43;32.10;96964.02;109692;1250;69454;-71
2022/05/24 08:20:12;;;;;;;3.70;2.50;;;;;;;25.40;30.78;96961.09;109916;1250;59738;-70
2022/05/24 08:22:42;;;;;;;2.90;2.30;;;;;;;25.75;31.64;96958.05;109929;1250;59753;-70
2022/05/24 08:25:12;;;;;;;3.60;2.50;;;;;;;25.68;30.65;96957.48;109930;1249;70869;-69
2022/05/24 08:27:42;;;;;;;3.90;2.40;;;;;;;25.62;30.58;96952.36;109873;1251;68854;-70
2022/05/24 08:30:15;;;;;;;3.70;1.90;;;;;;;25.55;30.09;96953.83;109928;1250;68457;-71
2022/05/24 08:32:47;;;;;;;3.90;2.60;;;;;;;25.35;30.59;96947.39;109650;1253;59789;-71
2022/05/24 08:35:19;;;;;;;4.20;2.20;;;;;;;25.36;30.38;96950.04;109702;1250;59763;-75
2022/05/24 08:37:48;;;;;;;3.00;2.40;;;;;;;25.49;30.18;96947.24;109705;1253;70836;-69
2022/05/24 08:40:20;;;;;;;3.70;2.30;;;;;;;25.32;30.93;96942.52;109867;1250;67958;-70
2022/05/24 08:43:27;;;;;;;5.20;2.60;;;;;;;24.69;31.11;96939.70;109923;1250;69773;-71
2022/05/24 08:49:10;;;;;;;3.80;2.20;;;;;;;25.45;30.14;96933.15;109229;1258;60149;-70
2022/05/24 08:51:57;;;;;;;4.90;2.10;;;;;;;25.53;29.03;96927.61;109742;1249;72063;-72
2022/05/24 08:54:41;;;;;;;3.20;2.40;;;;;;;25.33;29.21;96927.77;109948;1250;67999;-74
2022/05/24 08:57:15;;;;;;;3.20;1.90;;;;;;;25.30;29.69;96925.52;109942;1247;68667;-71
2022/05/24 08:59:56;;;;;;;3.20;2.10;;;;;;;25.31;30.00;96923.98;109903;1250;59783;-74
2022/05/24 09:02:25;;;;;;;3.70;2.00;;;;;;;25.81;30.08;96917.17;109727;1253;59861;-72
2022/05/24 09:04:54;;;;;;;2.00;1.80;;;;;;;26.23;28.38;96924.33;109925;1250;71561;-70
2022/05/24 09:07:43;;;;;;;5.50;2.40;;;;;;;26.13;28.68;96916.45;109918;1250;68092;-73
2022/05/24 09:10:23;;;;;;;5.70;2.40;;;;;;;26.16;27.48;96913.48;109927;1250;69454;-74
2022/05/24 09:13:23;;;;;;;3.30;2.10;;;;;;;26.19;27.79;96911.81;109926;1250;60044;-73
2022/05/24 09:16:06;;;;;;;2.80;2.10;;;;;;;26.20;27.77;96910.66;109866;1250;59738;-73
2022/05/24 09:19:06;;;;;;;2.80;1.80;;;;;;;26.08;28.22;96906.02;109925;1250;71428;-71
2022/05/24 09:21:37;;;;;;;2.60;2.10;;;;;;;25.93;28.11;96904.68;109820;1250;68596;-73
2022/05/24 09:24:27;;;;;;;1.80;1.40;;;;;;;26.10;28.61;96905.96;109625;1250;70212;-75
2022/05/24 09:27:17;;;;;;;3.10;1.80;;;;;;;26.73;28.22;96900.34;109966;1250;59726;-71
2022/05/24 09:29:57;;;;;;;3.10;2.00;;;;;;;26.84;28.29;96903.34;109956;1250;59752;-75
2022/05/24 09:32:42;;;;;;;3.50;1.80;;;;;;;27.02;27.06;96905.48;109974;1250;71834;-71
2022/05/24 09:35:18;;;;;;;2.50;1.80;;;;;;;26.95;26.72;96904.10;109969;1250;67843;-75
2022/05/24 09:38:14;;;;;;;2.60;2.00;;;;;;;27.04;26.85;96901.66;109910;1250;69451;-73
2022/05/24 09:40:55;;;;;;;3.60;2.40;;;;;;;26.57;26.60;96901.63;109872;1250;59699;-77
2022/05/24 09:43:34;;;;;;;2.30;2.10;;;;;;;26.22;26.85;96903.77;109947;1250;59690;-74
2022/05/24 09:46:15;;;;;;;3.30;1.90;;;;;;;26.06;27.09;96901.96;109981;1250;71347;-75
2022/05/24 09:48:56;;;;;;;3.80;2.60;;;;;;;25.95;28.38;96901.16;109947;1249;67831;-71
2022/05/24 09:51:35;;;;;;;2.90;1.80;;;;;;;26.49;28.27;96886.83;110036;1250;68663;-69
2022/05/24 09:54:13;;;;;;;3.80;2.20;;;;;;;26.76;27.82;96890.91;109876;1250;59744;-68
2022/05/24 09:57:01;;;;;;;2.80;2.00;;;;;;;27.35;26.30;96889.45;109896;1250;60091;-71
2022/05/24 09:59:31;;;;;;;3.00;2.10;;;;;;;26.91;25.72;96888.16;109942;1250;70764;-70
2022/05/24 10:02:02;;;;;;;3.70;2.00;;;;;;;25.76;27.67;96878.98;109954;1249;67808;-73
2022/05/24 10:04:39;;;;;;;2.30;2.10;;;;;;;26.46;27.38;96881.26;110032;1250;69381;-71
2022/05/24 10:07:46;;;;;;;2.40;1.70;;;;;;;26.03;27.74;96875.27;109895;1250;59698;-71
2022/05/24 10:10:24;;;;;;;3.10;2.30;;;;;;;25.62;26.62;96873.31;109237;1257;59729;-71
2022/05/24 10:12:56;;;;;;;2.80;2.00;;;;;;;25.87;27.54;96871.54;109368;1256;70878;-70
2022/05/24 10:15:50;;;;;;;3.20;2.30;;;;;;;25.70;28.12;96874.41;109357;1256;68669;-70
2022/05/24 10:18:28;;;;;;;2.30;2.10;;;;;;;25.70;27.99;96870.86;109289;1256;69016;-71
2022/05/24 10:21:15;;;;;;;3.10;2.10;;;;;;;25.82;27.68;96872.17;109363;1256;59646;-72
2022/05/24 10:24:07;;;;;;;2.60;2.10;;;;;;;25.58;28.06;96878.25;109317;1256;59816;-75
2022/05/24 10:26:58;;;;;;;4.90;2.50;;;;;;;25.37;28.40;96873.90;109348;1256;72125;-70
2022/05/24 10:29:42;;;;;;;2.90;2.40;;;;;;;25.25;28.35;96875.47;109407;1256;67957;-71
2022/05/24 10:38:42;;;;;;;3.60;1.90;;;;;;;24.71;28.59;96863.82;109365;1256;59739;-70
2022/05/24 10:41:39;;;;;;;3.60;2.50;;;;;;;24.78;28.31;96859.61;109378;1257;71672;-72
2022/05/24 10:44:16;;;;;;;3.60;1.70;;;;;;;24.76;28.17;96861.87;109323;1256;67774;-73
2022/05/24 10:46:53;;;;;;;2.70;2.40;;;;;;;24.63;28.65;96858.58;109447;1253;69545;-69
2022/05/24 10:49:26;;;;;;;3.50;1.70;;;;;;;24.68;28.89;96855.16;109827;1250;59694;-70
2022/05/24 10:52:09;;;;;;;2.70;1.90;;;;;;;25.12;28.41;96855.20;109918;1250;59754;-70
2022/05/24 10:54:48;;;;;;;3.00;2.40;;;;;;;25.51;27.91;96854.55;109735;1250;71542;-73
2022/05/24 10:57:41;;;;;;;2.70;2.00;;;;;;;25.63;27.65;96859.52;109826;1250;68671;-71
2022/05/24 11:00:16;;;;;;;3.00;2.30;;;;;;;25.87;27.55;96854.07;109931;1250;68682;-74
2022/05/24 11:02:50;;;;;;;4.70;2.10;;;;;;;26.15;27.00;96853.95;109822;1251;59691;-76
2022/05/24 11:05:44;;;;;;;2.30;1.80;;;;;;;25.67;26.47;96856.70;109875;1250;59682;-75
2022/05/24 11:08:41;;;;;;;3.80;2.40;;;;;;;25.50;27.90;96849.02;109830;1250;71612;-71
2022/05/24 11:11:40;;;;;;;2.50;1.80;;;;;;;25.80;26.44;96853.27;109903;1249;68602;-72
2022/05/24 11:14:29;;;;;;;2.10;1.50;;;;;;;25.84;26.13;96846.23;109961;1250;69524;-76
2022/05/24 11:17:00;;;;;;;2.80;2.00;;;;;;;26.10;25.97;96844.80;109698;1251;59701;-74
2022/05/24 11:19:40;;;;;;;3.50;2.10;;;;;;;25.93;25.88;96846.84;109885;1250;59756;-76
2022/05/24 11:22:21;;;;;;;3.00;2.10;;;;;;;26.04;26.65;96855.06;109697;1253;71645;-72
2022/05/24 11:25:11;;;;;;;3.10;1.90;;;;;;;26.28;26.25;96849.52;109671;1252;68571;-71
2022/05/24 11:27:50;;;;;;;3.40;2.10;;;;;;;26.77;25.41;96857.58;109750;1252;69462;-69
2022/05/24 11:30:28;;;;;;;3.10;2.10;;;;;;;26.89;25.48;96856.54;109780;1252;59747;-76
2022/05/24 11:33:05;;;;;;;3.00;2.30;;;;;;;26.91;25.08;96859.18;109895;1250;59665;-74
2022/05/24 11:36:18;;;;;;;2.20;1.60;;;;;;;26.53;25.59;96851.08;109725;1250;71590;-71
2022/05/24 11:38:49;;;;;;;2.60;1.90;;;;;;;27.07;26.74;96847.85;109775;1250;67814;-68
2022/05/24 11:41:34;;;;;;;1.80;1.60;;;;;;;27.43;25.54;96846.72;109864;1251;68832;-73
2022/05/24 11:44:07;;;;;;;2.70;1.90;;;;;;;27.76;25.13;96840.19;109951;1250;59754;-74
2022/05/24 11:46:45;;;;;;;2.20;2.00;;;;;;;27.77;24.75;96837.48;109853;1251;59765;-72
2022/05/24 11:49:21;;;;;;;4.40;2.10;;;;;;;27.81;25.26;96830.07;110044;1250;71584;-72
2022/05/24 11:51:53;;;;;;;3.00;2.40;;;;;;;27.11;24.92;96825.51;109995;1250;68571;-72
2022/05/24 11:54:22;;;;;;;2.40;2.00;;;;;;;27.15;25.40;96831.53;109995;1250;68726;-73
2022/05/24 11:57:14;;;;;;;2.30;1.90;;;;;;;26.94;25.07;96831.63;109869;1250;59751;-70
2022/05/24 11:59:43;;;;;;;2.20;1.90;;;;;;;26.67;25.34;96832.92;109982;1250;59697;-69
2022/05/24 12:02:23;;;;;;;;;;;;;;;26.69;25.34;96834.25;109985;1250;70827;-72
2022/05/24 12:07:54;;;;;;;7.80;2.70;;;;;;;26.32;26.28;96820.41;109967;1250;68652;-71
2022/05/24 12:10:24;;;;;;;2.40;1.90;;;;;;;25.95;27.51;96818.06;109959;1250;59694;-75
2022/05/24 12:12:57;;;;;;;;;;;;;;;25.44;27.46;96824.93;109959;1250;59676;-71
2022/05/24 12:15:47;;;;;;;2.30;1.80;;;;;;;24.99;27.88;96825.49;109963;1250;70760;-69
2022/05/24 12:18:20;;;;;;;2.50;1.70;;;;;;;24.96;28.89;96823.57;109847;1250;68500;-70
2022/05/24 12:20:49;;;;;;;1.90;1.40;;;;;;;24.91;27.98;96823.20;109702;1250;69446;-69
2022/05/24 12:23:34;;;;;;;2.40;1.60;;;;;;;25.46;27.40;96825.54;109971;1250;59693;-74
2022/05/24 12:26:15;;;;;;;2.40;1.70;;;;;;;25.78;26.76;96824.36;109885;1250;59751;-70
2022/05/24 12:28:50;;;;;;;2.80;1.50;;;;;;;26.25;27.89;96824.50;109923;1250;70842;-69
2022/05/24 12:31:22;;;;;;;2.10;1.80;;;;;;;26.21;25.66;96820.33;110125;1249;68621;-73
2022/05/24 12:33:54;;;;;;;4.30;2.10;;;;;;;26.13;26.07;96823.56;109982;1250;68551;-74
2022/05/24 12:36:46;;;;;;;3.30;1.90;;;;;;;26.24;26.48;96822.85;110153;1249;59677;-71
2022/05/24 12:39:35;;;;;;;2.40;1.70;;;;;;;25.75;26.54;96822.33;109937;1250;59703;-69
2022/05/24 12:42:13;;;;;;;1.90;1.50;;;;;;;25.84;26.65;96825.23;109908;1250;72125;-69
2022/05/24 12:44:47;;;;;;;2.80;1.90;;;;;;;25.93;26.32;96823.09;110133;1248;68637;-74